createdAt,value
2019-04-05T00:02:07.396Z,62.00
2019-04-05T00:04:36.440Z,62.60
2019-04-05T00:07:05.431Z,62.80
2019-04-05T00:09:34.681Z,63.50
2019-04-05T00:12:03.985Z,63.50
2019-04-05T00:14:33.283Z,63.50
2019-04-05T00:17:02.582Z,64.10
2019-04-05T00:19:31.884Z,64.50
2019-04-05T00:22:01.187Z,64.20
2019-04-05T00:24:30.484Z,64.70
2019-04-05T00:26:59.784Z,64.70
2019-04-05T00:29:29.093Z,64.30
2019-04-05T00:31:58.385Z,65.10
2019-04-05T00:34:27.687Z,65.50
2019-04-05T00:36:56.986Z,65.40
2019-04-05T00:39:26.336Z,65.10
2019-04-05T00:42:02.511Z,64.70
2019-04-05T00:44:30.733Z,65.20
2019-04-05T00:47:00.024Z,65.40
2019-04-05T00:49:29.325Z,64.70
2019-04-05T00:51:58.625Z,66.30
2019-04-05T00:54:27.926Z,65.70
2019-04-05T00:56:57.045Z,66.90
2019-04-05T00:59:26.219Z,66.40
2019-04-05T01:01:55.519Z,65.70
2019-04-05T01:04:24.822Z,66.90
2019-04-05T01:06:54.123Z,67.00
2019-04-05T01:09:23.422Z,67.50
2019-04-05T01:11:53.029Z,67.40
2019-04-05T01:14:22.637Z,68.20
2019-04-05T01:16:51.938Z,68.60
2019-04-05T01:19:30.411Z,67.60
2019-04-05T01:22:02.519Z,68.00
2019-04-05T01:24:31.874Z,69.40
2019-04-05T01:27:01.432Z,69.90
2019-04-05T01:29:30.727Z,69.90
2019-04-05T01:32:00.029Z,69.40
2019-04-05T01:34:29.330Z,69.70
2019-04-05T01:36:58.960Z,69.60
2019-04-05T01:39:28.256Z,69.90
2019-04-05T01:41:57.849Z,70.90
2019-04-05T01:44:27.758Z,71.10
2019-04-05T01:46:57.059Z,71.40
2019-04-05T01:49:26.360Z,71.10
2019-04-05T01:51:55.660Z,71.10
2019-04-05T01:54:24.960Z,71.10
2019-04-05T01:56:54.039Z,71.70
2019-04-05T01:59:23.255Z,71.80
2019-04-05T02:01:52.553Z,71.90
2019-04-05T02:04:21.854Z,71.30
2019-04-05T02:06:50.934Z,71.20
2019-04-05T02:09:20.148Z,71.30
2019-04-05T02:11:49.755Z,70.30
2019-04-05T02:14:18.748Z,70.10
2019-04-05T02:16:48.663Z,70.00
2019-04-05T02:19:17.964Z,70.10
2019-04-05T02:21:47.266Z,69.80
2019-04-05T02:24:16.564Z,69.50
2019-04-05T02:26:45.865Z,70.30
2019-04-05T02:29:15.169Z,70.30
2019-04-05T02:31:44.774Z,70.70
2019-04-05T02:34:14.077Z,70.80
2019-04-05T02:36:44.303Z,71.10
2019-04-05T02:39:13.598Z,70.90
2019-04-05T02:41:43.208Z,71.90
2019-04-05T02:44:14.658Z,71.50
2019-04-05T02:46:46.443Z,71.30
2019-04-05T02:49:16.946Z,71.30
2019-04-05T02:51:49.348Z,72.30
2019-04-05T02:54:19.846Z,72.50
2019-04-05T02:56:50.685Z,72.00
2019-04-05T02:59:19.058Z,73.40
2019-04-05T03:01:48.668Z,73.60
2019-04-05T03:04:17.967Z,75.40
2019-04-05T03:06:49.426Z,74.30
2019-04-05T03:09:19.950Z,74.40
2019-04-05T03:11:50.478Z,75.50
2019-04-05T03:14:21.619Z,75.10
2019-04-05T03:16:53.701Z,74.80
2019-04-05T03:19:25.769Z,75.40
2019-04-05T03:21:57.819Z,75.70
2019-04-05T03:24:30.220Z,75.80
2019-04-05T03:27:02.552Z,75.80
2019-04-05T03:29:33.091Z,77.00
2019-04-05T03:32:04.371Z,76.40
2019-04-05T03:34:34.457Z,77.60
2019-04-05T03:37:04.372Z,77.00
2019-04-05T03:39:34.899Z,77.40
2019-04-05T03:42:04.816Z,78.40
2019-04-05T03:44:34.125Z,77.70
2019-04-05T03:47:04.956Z,77.40
2019-04-05T03:49:34.869Z,77.80
2019-04-05T03:52:06.029Z,78.00
2019-04-05T03:54:35.927Z,77.30
2019-04-05T03:57:05.532Z,76.40
2019-04-05T03:59:34.832Z,76.40
2019-04-05T04:02:05.057Z,75.90
2019-04-05T04:04:34.676Z,74.50
2019-04-05T04:07:04.587Z,74.30
2019-04-05T04:09:34.186Z,73.40
2019-04-05T04:12:04.100Z,73.20
2019-04-05T04:14:33.707Z,72.70
2019-04-05T04:17:12.222Z,72.20
2019-04-05T04:19:34.460Z,71.80
2019-04-05T04:22:24.655Z,71.10
2019-04-05T04:24:55.179Z,70.40
2019-04-05T04:27:25.401Z,69.90
2019-04-05T04:29:55.316Z,69.20
2019-04-05T04:32:26.153Z,69.30
2019-04-05T04:34:54.837Z,69.20
2019-04-05T04:37:27.216Z,69.30
2019-04-05T04:39:55.895Z,68.70
2019-04-05T04:42:26.713Z,68.60
2019-04-05T04:44:54.911Z,68.50
2019-04-05T04:47:26.747Z,67.80
2019-04-05T04:49:57.403Z,68.20
2019-04-05T04:52:29.979Z,67.60
2019-04-05T04:54:59.071Z,66.90
2019-04-05T04:57:28.987Z,66.30
2019-04-05T04:59:58.435Z,66.10
2019-04-05T05:02:27.894Z,65.80
2019-04-05T05:04:57.198Z,65.30
2019-04-05T05:07:26.482Z,64.80
2019-04-05T05:09:56.106Z,63.70
2019-04-05T05:12:26.017Z,63.80
2019-04-05T05:14:55.661Z,63.50
2019-04-05T05:17:37.507Z,63.40
2019-04-05T05:19:55.763Z,63.60
2019-04-05T05:22:25.370Z,62.40
2019-04-05T05:24:55.286Z,62.20
2019-04-05T05:27:24.584Z,62.50
2019-04-05T05:29:54.500Z,61.40
2019-04-05T05:32:24.108Z,61.00
2019-04-05T05:35:01.871Z,60.90
2019-04-05T05:37:24.858Z,60.00
2019-04-05T05:39:54.158Z,59.40
2019-04-05T05:42:23.464Z,58.10
2019-04-05T05:44:52.499Z,55.20
2019-04-05T05:47:21.754Z,53.80
2019-04-05T05:49:51.054Z,52.30
2019-04-05T05:52:21.430Z,51.80
2019-04-05T05:54:50.576Z,51.40
2019-04-05T05:57:19.618Z,50.60
2019-04-05T05:59:48.886Z,50.90
2019-04-05T06:02:18.171Z,52.00
2019-04-05T06:04:47.471Z,53.00
2019-04-05T06:07:19.939Z,52.30
2019-04-05T06:09:47.789Z,53.50
2019-04-05T06:12:19.756Z,53.90
2019-04-05T06:14:52.037Z,54.40
2019-04-05T06:17:21.040Z,54.10
2019-04-05T06:19:51.669Z,54.00
2019-04-05T06:22:20.867Z,53.80
2019-04-05T06:24:50.244Z,53.90
2019-04-05T06:27:19.469Z,53.30
2019-04-05T06:29:48.769Z,54.00
2019-04-05T06:32:18.069Z,53.50
2019-04-05T06:34:47.370Z,53.00
2019-04-05T06:37:19.743Z,51.40
2019-04-05T06:39:49.043Z,51.90
2019-04-05T06:42:18.345Z,51.60
2019-04-05T06:44:47.644Z,51.20
2019-04-05T06:47:16.950Z,51.00
2019-04-05T06:49:46.245Z,51.00
2019-04-05T06:52:15.556Z,49.50
2019-04-05T06:54:44.845Z,49.30
2019-04-05T06:57:14.146Z,48.60
2019-04-05T06:59:43.451Z,48.90
2019-04-05T07:02:12.746Z,48.30
2019-04-05T07:04:42.049Z,48.60
2019-04-05T07:07:11.350Z,48.60
2019-04-05T07:09:40.650Z,48.40
2019-04-05T07:12:09.950Z,47.40
2019-04-05T07:14:39.248Z,48.90
2019-04-05T07:17:08.554Z,47.70
2019-04-05T07:19:37.849Z,47.80
2019-04-05T07:22:07.150Z,47.20
2019-04-05T07:24:36.451Z,46.30
2019-04-05T07:27:05.750Z,45.50
2019-04-05T07:29:35.053Z,45.50
2019-04-05T07:32:04.352Z,45.00
2019-04-05T07:34:33.653Z,44.50
2019-04-05T07:37:02.952Z,44.40
2019-04-05T07:39:32.252Z,44.60
2019-04-05T07:42:01.554Z,44.30
2019-04-05T07:44:30.854Z,43.20
2019-04-05T07:47:00.153Z,43.50
2019-04-05T07:49:29.455Z,43.00
2019-04-05T07:51:58.755Z,42.10
2019-04-05T07:54:28.055Z,42.60
2019-04-05T07:56:57.356Z,41.60
2019-04-05T07:59:26.660Z,42.00
2019-04-05T08:01:55.956Z,41.80
2019-04-05T08:04:25.290Z,41.60
2019-04-05T08:06:56.709Z,40.10
2019-04-05T08:09:27.237Z,39.30
2019-04-05T08:11:56.844Z,38.70
2019-04-05T08:14:27.374Z,37.40
2019-04-05T08:16:56.677Z,38.00
2019-04-05T08:19:25.670Z,38.10
2019-04-05T08:21:54.970Z,38.40
2019-04-05T08:24:24.269Z,37.30
2019-04-05T08:26:53.569Z,37.80
2019-04-05T08:29:22.872Z,36.40
2019-04-05T08:31:52.171Z,36.50
2019-04-05T08:34:21.470Z,35.70
2019-04-05T08:36:52.619Z,35.00
2019-04-05T08:39:21.919Z,35.40
2019-04-05T08:41:51.216Z,34.60
2019-04-05T08:44:20.518Z,33.70
2019-04-05T08:46:49.817Z,34.70
2019-04-05T08:49:19.118Z,33.00
2019-04-05T08:51:48.418Z,32.60
2019-04-05T08:54:17.718Z,32.70
2019-04-05T08:56:47.023Z,31.70
2019-04-05T08:59:16.321Z,31.20
2019-04-05T09:01:45.621Z,31.90
2019-04-05T09:04:14.920Z,31.60
2019-04-05T09:06:44.222Z,30.80
2019-04-05T09:09:13.519Z,31.00
2019-04-05T09:11:42.819Z,30.00
2019-04-05T09:14:12.120Z,30.30
2019-04-05T09:16:41.432Z,31.00
2019-04-05T09:19:22.741Z,30.10
2019-04-05T09:21:41.255Z,30.40
2019-04-05T09:24:10.344Z,29.80
2019-04-05T09:26:39.544Z,30.00
2019-04-05T09:29:09.443Z,30.00
2019-04-05T09:31:39.065Z,30.30
2019-04-05T09:34:08.367Z,30.00
2019-04-05T09:36:37.668Z,29.60
2019-04-05T09:39:13.830Z,29.80
2019-04-05T09:41:41.538Z,30.00
2019-04-05T09:44:10.586Z,29.80
2019-04-05T09:46:46.947Z,29.20
2019-04-05T09:49:10.313Z,29.60
2019-04-05T09:51:39.614Z,29.70
2019-04-05T09:54:08.914Z,29.30
2019-04-05T09:56:38.214Z,29.40
2019-04-05T09:59:07.516Z,29.90
2019-04-05T10:01:36.815Z,29.60
2019-04-05T10:04:06.117Z,29.10
2019-04-05T10:06:35.416Z,29.50
2019-04-05T10:09:06.560Z,29.70
2019-04-05T10:11:35.860Z,29.20
2019-04-05T10:14:05.471Z,28.90
2019-04-05T10:16:34.768Z,28.20
2019-04-05T10:19:04.068Z,28.90
2019-04-05T10:21:33.368Z,29.10
2019-04-05T10:24:02.670Z,28.80
2019-04-05T10:26:31.970Z,28.70
2019-04-05T10:29:01.065Z,28.80
2019-04-05T10:31:30.263Z,28.80
2019-04-05T10:33:59.564Z,29.00
2019-04-05T10:36:34.481Z,29.40
2019-04-05T10:39:05.212Z,28.80
2019-04-05T10:41:34.538Z,28.30
2019-04-05T10:44:08.753Z,28.20
2019-04-05T10:46:38.354Z,28.30
2019-04-05T10:49:07.658Z,28.20
2019-04-05T10:51:36.955Z,28.80
2019-04-05T10:54:09.173Z,28.60
2019-04-05T10:56:42.314Z,28.40
2019-04-05T10:59:14.932Z,29.50
2019-04-05T11:01:47.366Z,29.00
2019-04-05T11:04:19.433Z,27.40
2019-04-05T11:06:57.169Z,27.00
2019-04-05T11:09:26.328Z,26.60
2019-04-05T11:11:55.634Z,26.70
2019-04-05T11:14:30.150Z,26.60
2019-04-05T11:16:59.460Z,27.20
2019-04-05T11:19:30.224Z,27.30
2019-04-05T11:21:59.281Z,26.60
2019-04-05T11:24:28.581Z,27.80
2019-04-05T11:26:57.887Z,26.70
2019-04-05T11:29:27.182Z,26.40
2019-04-05T11:31:57.694Z,25.30
2019-04-05T11:34:28.241Z,26.30
2019-04-05T11:36:57.541Z,26.90
2019-04-05T11:39:27.457Z,25.70
2019-04-05T11:41:58.599Z,26.50
2019-04-05T11:44:29.134Z,27.70
2019-04-05T11:46:58.738Z,26.10
2019-04-05T11:49:30.584Z,26.90
2019-04-05T11:51:59.795Z,26.20
2019-04-05T11:54:29.097Z,26.60
2019-04-05T11:56:58.400Z,26.40
2019-04-05T11:59:27.698Z,27.00
2019-04-05T12:02:10.823Z,26.70
2019-04-05T12:04:42.633Z,26.10
2019-04-05T12:07:10.655Z,25.90
2019-04-05T12:09:39.953Z,26.90
2019-04-05T12:12:10.025Z,26.50
2019-04-05T12:14:39.167Z,26.30
2019-04-05T12:17:09.691Z,26.30
2019-04-05T12:19:39.305Z,25.30
2019-04-05T12:22:09.264Z,24.90
2019-04-05T12:24:41.590Z,24.90
2019-04-05T12:27:10.891Z,25.30
2019-04-05T12:29:40.194Z,26.50
2019-04-05T12:32:09.498Z,26.40
2019-04-05T12:34:38.791Z,27.30
2019-04-05T12:37:08.093Z,25.80
2019-04-05T12:39:38.930Z,25.80
2019-04-05T12:42:07.308Z,26.70
2019-04-05T12:44:36.609Z,26.30
2019-04-05T12:47:06.215Z,26.40
2019-04-05T12:49:35.518Z,27.40
2019-04-05T12:52:05.124Z,27.00
2019-04-05T12:54:34.424Z,26.30
2019-04-05T12:57:03.727Z,25.90
2019-04-05T12:59:33.026Z,26.00
2019-04-05T13:02:02.338Z,27.70
2019-04-05T13:04:33.163Z,27.00
2019-04-05T13:07:01.336Z,26.60
2019-04-05T13:09:32.234Z,26.80
2019-04-05T13:12:02.243Z,27.30
2019-04-05T13:14:31.593Z,26.60
2019-04-05T13:17:04.282Z,26.30
2019-04-05T13:19:33.572Z,26.50
2019-04-05T13:22:02.873Z,27.40
2019-04-05T13:24:34.026Z,26.60
2019-04-05T13:27:05.495Z,26.00
2019-04-05T13:29:33.846Z,25.90
2019-04-05T13:32:03.153Z,27.30
2019-04-05T13:34:32.090Z,26.40
2019-04-05T13:37:01.939Z,27.30
2019-04-05T13:39:31.662Z,26.60
2019-04-05T13:42:01.806Z,27.50
2019-04-05T13:44:31.931Z,27.00
2019-04-05T13:47:01.714Z,27.00
2019-04-05T13:49:31.020Z,27.10
2019-04-05T13:52:00.316Z,26.80
2019-04-05T13:54:29.618Z,28.50
2019-04-05T13:56:58.930Z,27.60
2019-04-05T13:59:30.673Z,26.70
2019-04-05T14:02:06.066Z,28.10
2019-04-05T14:04:30.506Z,27.30
2019-04-05T14:06:59.784Z,27.70
2019-04-05T14:09:31.572Z,28.00
2019-04-05T14:11:59.636Z,27.20
2019-04-05T14:14:28.935Z,27.60
2019-04-05T14:16:58.239Z,27.60
2019-04-05T14:19:28.767Z,26.80
2019-04-05T14:22:07.820Z,27.40
2019-04-05T14:24:31.665Z,26.80
2019-04-05T14:27:02.835Z,26.70
2019-04-05T14:29:33.272Z,27.10
2019-04-05T14:32:19.457Z,27.60
2019-04-05T14:34:32.861Z,27.90
2019-04-05T14:37:02.162Z,27.30
2019-04-05T14:39:31.461Z,28.40
2019-04-05T14:42:09.745Z,26.70
2019-04-05T14:44:30.473Z,27.20
2019-04-05T14:47:02.128Z,28.00
2019-04-05T14:49:31.427Z,27.40
2019-04-05T14:52:01.173Z,27.80
2019-04-05T14:54:31.564Z,27.30
2019-04-05T14:57:05.549Z,28.10
2019-04-05T14:59:32.817Z,27.60
2019-04-05T15:02:01.924Z,28.20
2019-04-05T15:04:31.226Z,27.90
2019-04-05T15:07:01.357Z,27.80
2019-04-05T15:09:31.056Z,28.50
2019-04-05T15:12:00.356Z,28.40
2019-04-05T15:14:29.654Z,27.70
2019-04-05T15:16:58.733Z,27.60
2019-04-05T15:19:27.949Z,28.00
2019-04-05T15:22:05.728Z,27.70
2019-04-05T15:24:27.777Z,28.00
2019-04-05T15:26:57.082Z,27.20
2019-04-05T15:29:26.629Z,27.50
2019-04-05T15:31:56.585Z,27.60
2019-04-05T15:34:28.445Z,28.10
2019-04-05T15:36:56.432Z,28.20
2019-04-05T15:39:25.731Z,28.90
2019-04-05T15:41:55.953Z,28.20
2019-04-05T15:44:25.254Z,28.30
2019-04-05T15:46:54.553Z,27.90
2019-04-05T15:49:23.856Z,28.10
2019-04-05T15:51:58.737Z,28.50
2019-04-05T15:54:29.029Z,28.60
2019-04-05T15:56:57.899Z,27.90
2019-04-05T15:59:27.203Z,28.10
2019-04-05T16:01:56.500Z,28.20
2019-04-05T16:04:25.800Z,28.50
2019-04-05T16:06:55.102Z,28.70
2019-04-05T16:09:24.181Z,28.80
2019-04-05T16:11:53.137Z,28.60
2019-04-05T16:14:23.309Z,29.00
2019-04-05T16:16:53.656Z,28.90
2019-04-05T16:19:23.139Z,29.20
2019-04-05T16:21:52.439Z,29.20
2019-04-05T16:24:21.435Z,29.20
2019-04-05T16:26:50.733Z,29.10
2019-04-05T16:29:39.080Z,30.20
2019-04-05T16:32:08.380Z,30.00
2019-04-05T16:34:37.681Z,30.00
2019-04-05T16:37:09.440Z,30.30
2019-04-05T16:39:43.348Z,30.00
2019-04-05T16:42:13.575Z,30.00
2019-04-05T16:44:42.893Z,30.40
2019-04-05T16:47:11.865Z,30.80
2019-04-05T16:49:41.165Z,31.00
2019-04-05T16:52:10.457Z,31.50
2019-04-05T16:54:39.764Z,32.10
2019-04-05T16:57:08.758Z,32.20
2019-04-05T16:59:38.062Z,32.90
2019-04-05T17:02:07.359Z,33.10
2019-04-05T17:04:36.454Z,33.10
2019-04-05T17:07:05.468Z,33.30
2019-04-05T17:09:34.648Z,33.70
2019-04-05T17:12:06.600Z,34.20
2019-04-05T17:14:46.151Z,34.40
2019-04-05T17:17:15.453Z,34.70
2019-04-05T17:19:44.763Z,35.00
2019-04-05T17:22:14.051Z,35.40
2019-04-05T17:24:43.356Z,35.80
2019-04-05T17:27:13.339Z,35.80
2019-04-05T17:29:42.566Z,36.30
2019-04-05T17:32:11.867Z,36.20
2019-04-05T17:34:41.212Z,36.60
2019-04-05T17:37:10.471Z,36.40
2019-04-05T17:39:39.563Z,36.30
2019-04-05T17:42:08.761Z,36.60
2019-04-05T17:44:38.675Z,36.50
2019-04-05T17:47:07.976Z,36.50
2019-04-05T17:49:37.071Z,36.50
2019-04-05T17:52:06.577Z,36.80
2019-04-05T17:54:35.877Z,37.00
2019-04-05T17:57:06.714Z,37.10
2019-04-05T17:59:38.217Z,37.30
2019-04-05T18:02:07.465Z,37.40
2019-04-05T18:04:38.198Z,37.50
2019-04-05T18:07:07.295Z,37.40
2019-04-05T18:09:36.595Z,37.30
2019-04-05T18:12:06.183Z,37.40
2019-04-05T18:14:35.503Z,37.10
2019-04-05T18:17:04.785Z,37.20
2019-04-05T18:19:35.332Z,37.40
2019-04-05T18:22:04.633Z,37.30
2019-04-05T18:24:34.650Z,37.10
2019-04-05T18:27:03.849Z,37.40
2019-04-05T18:29:32.943Z,37.00
2019-04-05T18:32:02.143Z,37.10
2019-04-05T18:34:33.535Z,37.20
2019-04-05T18:37:02.881Z,37.20
2019-04-05T18:39:32.195Z,37.20
2019-04-05T18:42:01.494Z,37.40
2019-04-05T18:44:30.794Z,37.00
2019-04-05T18:47:00.095Z,37.10
2019-04-05T18:49:29.396Z,37.70
2019-04-05T18:51:58.698Z,37.30
2019-04-05T18:54:28.007Z,37.20
2019-04-05T18:56:59.142Z,36.90
2019-04-05T18:59:28.443Z,37.50
2019-04-05T19:01:57.779Z,37.30
2019-04-05T19:04:34.301Z,37.30
2019-04-05T19:07:09.248Z,37.40
2019-04-05T19:09:38.339Z,37.20
2019-04-05T19:12:07.538Z,37.50
2019-04-05T19:14:36.838Z,38.10
2019-04-05T19:17:06.141Z,38.10
2019-04-05T19:19:35.233Z,38.50
2019-04-05T19:22:09.041Z,38.40
2019-04-05T19:24:38.340Z,38.70
2019-04-05T19:27:28.225Z,38.80
2019-04-05T19:29:57.524Z,39.20
2019-04-05T19:50:06.059Z,42.40
2019-04-05T19:52:34.240Z,43.50
2019-04-05T19:55:03.757Z,43.60
2019-04-05T19:57:34.268Z,44.00
2019-04-05T20:00:03.593Z,44.30
2019-04-05T20:02:32.868Z,44.50
2019-04-05T20:05:02.204Z,45.30
2019-04-05T20:07:31.468Z,45.70
2019-04-05T20:10:00.770Z,46.10
2019-04-05T20:12:30.070Z,46.20
2019-04-05T20:14:59.377Z,46.60
2019-04-05T20:17:28.670Z,46.80
2019-04-05T20:19:58.586Z,47.70
2019-04-05T20:22:27.886Z,47.50
2019-04-05T20:24:57.187Z,47.70
2019-04-05T20:27:26.486Z,48.50
2019-04-05T20:29:55.786Z,47.80
2019-04-05T20:32:25.087Z,48.20
2019-04-05T20:34:55.923Z,48.70
2019-04-05T20:37:24.305Z,48.60
2019-04-05T20:39:53.605Z,48.90
2019-04-05T20:42:22.903Z,48.90
2019-04-05T20:44:52.207Z,49.40
2019-04-05T20:47:22.425Z,49.60
2019-04-05T20:49:51.726Z,49.80
2019-04-05T20:52:21.026Z,49.40
2019-04-05T20:54:50.327Z,49.10
2019-04-05T20:57:19.629Z,49.30
2019-04-05T20:59:48.928Z,49.50
2019-04-05T21:02:18.229Z,49.30
2019-04-05T21:04:47.530Z,49.40
2019-04-05T21:07:19.594Z,49.80
2019-04-05T21:09:48.948Z,49.30
2019-04-05T21:12:18.197Z,49.50
2019-04-05T21:14:47.495Z,50.10
2019-04-05T21:17:16.795Z,49.80
2019-04-05T21:19:46.099Z,49.70
2019-04-05T21:22:15.397Z,49.80
2019-04-05T21:24:44.437Z,49.70
2019-04-05T21:27:13.689Z,50.30
2019-04-05T21:29:42.689Z,49.90
2019-04-05T21:32:11.983Z,50.10
2019-04-05T21:34:41.291Z,50.00
2019-04-05T21:37:10.590Z,49.90
2019-04-05T21:39:39.923Z,50.30
2019-04-05T21:42:09.191Z,50.30
2019-04-05T21:44:38.501Z,49.90
2019-04-05T21:47:09.022Z,50.40
2019-04-05T21:49:38.361Z,50.50
2019-04-05T21:52:07.621Z,51.20
2019-04-05T21:54:47.093Z,50.90
2019-04-05T21:57:08.685Z,51.60
2019-04-05T21:59:37.980Z,51.10
2019-04-05T22:02:07.284Z,51.00
2019-04-05T22:04:36.591Z,51.80
2019-04-05T22:07:05.930Z,51.40
2019-04-05T22:09:35.185Z,52.20
2019-04-05T22:12:14.754Z,52.10
2019-04-05T22:14:44.232Z,52.60
2019-04-05T22:17:13.533Z,52.70
2019-04-05T22:19:42.625Z,53.00
2019-04-05T22:22:14.592Z,52.30
2019-04-05T22:24:43.889Z,51.80
2019-04-05T22:27:13.190Z,51.10
2019-04-05T22:29:42.493Z,51.10
2019-04-05T22:32:11.810Z,50.60
2019-04-05T22:34:41.094Z,50.60
2019-04-05T22:37:10.395Z,50.70
2019-04-05T22:39:39.446Z,50.60
2019-04-05T22:42:08.477Z,50.20
2019-04-05T22:44:40.075Z,50.30
2019-04-05T22:47:08.210Z,50.30
2019-04-05T22:49:39.045Z,50.00
2019-04-05T22:52:07.422Z,50.30
2019-04-05T22:54:36.730Z,50.10
2019-04-05T22:57:06.023Z,49.80
2019-04-05T22:59:35.324Z,49.40
2019-04-05T23:02:05.372Z,49.20
2019-04-05T23:04:34.540Z,49.00
2019-04-05T23:07:03.840Z,49.30
2019-04-05T23:09:33.141Z,49.40
2019-04-05T23:12:02.442Z,49.30
2019-04-05T23:14:31.741Z,49.40
2019-04-05T23:17:01.042Z,49.50
2019-04-05T23:19:30.343Z,49.60
2019-04-05T23:22:00.926Z,49.70
2019-04-05T23:24:30.172Z,49.60
2019-04-05T23:26:59.475Z,49.20
2019-04-05T23:29:28.772Z,49.00
2019-04-05T23:31:58.073Z,49.00
2019-04-05T23:34:27.375Z,49.20
2019-04-05T23:36:56.674Z,49.20
2019-04-05T23:39:25.973Z,49.30
2019-04-05T23:41:55.276Z,49.50
2019-04-05T23:44:24.574Z,49.50
2019-04-05T23:46:54.797Z,49.30
2019-04-05T23:49:24.102Z,49.50
2019-04-05T23:51:53.398Z,49.60
2019-04-05T23:54:22.698Z,49.80
2019-04-05T23:56:51.999Z,49.60
2019-04-05T23:59:21.299Z,49.80
